ラロトンガ国際空港の過去48時間の天気

ラロトンガ国際空港 (Rarotonga)

現在時刻: 2/27 03:13 -10 (2/27 13:13 UTC) 以下の時間は現地時間です。

過去48時間のMETAR気象情報
時間 風向 風速(m/s) 視程 気温(℃) 湿度(%) 気圧(hPa) 天気現象
27 03:00 東南東 1 6000m 23 100 1009
27 02:30 1 2100m 23 100 1009 散在した霧
27 02:00 1 10km以上 24 100 1009
27 01:30 1 10km以上 24 100 1009
27 01:00 南南西 1 10km以上 24 100 1009
27 00:30 南南西 1 10km以上 24 100 1010
27 00:00 1 8000m 24 100 1010
26 23:30 東南東 1 10km以上 24 100 1010 弱い雨
26 23:00 南東 2 2800m 25 94 1010 強い雨 もや
26 22:30 北東 1 10km以上 25 100 1010
26 22:00 2 10km以上 25 100 1010
26 21:30 東南東 2 10km以上 25 100 1010
26 21:00 1 10km以上 25 100 1009
26 20:30 東南東 1 10km以上 26 94 1009
26 20:00 1 10km以上 26 94 1009
26 19:30 1 10km以上 26 94 1009
26 19:00 2 10km以上 27 89 1008
26 18:30 南南西 2 10km以上 27 89 1008
26 18:00 南西 2 10km以上 28 84 1008
26 17:30 2 10km以上 27 89 1008
26 17:00 北北東 2 10km以上 27 89 1008
26 16:30 南西 1 10km以上 26 94 1008
26 16:00 南西 2 10km以上 26 94 1008 弱い雨
26 15:30 西南西 3 10km以上 26 94 1009
26 15:00 西南西 2 10km以上 25 94 1009 弱い雨
26 14:30 西北西 3 8000m 25 94 1009 強い雨
26 14:00 東北東 3 6000m 24 100 1010 強い雨
26 13:30 - - - 24 100 1010 強い雨 もや
26 13:00 4 10km以上 25 100 1010 弱い雨
26 12:30 南南西 2 1600m 26 94 1010 強い雨 散在した霧
26 12:00 2 10km以上 27 89 1010
26 11:30 3 10km以上 28 84 1011
26 11:00 2 10km以上 27 89 1011
26 10:30 南南西 2 10km以上 27 89 1011 弱い雨
26 10:00 南南西 2 10km以上 27 89 1011
26 09:30 2 10km以上 26 94 1011
26 09:00 2 10km以上 26 94 1011 弱い雨
26 08:30 静穏 0 10km以上 25 100 1011
26 08:00 南西 1 10km以上 25 100 1011 弱い雨
26 07:30 南西 2 6000m 25 100 1011
26 07:00 南南西 1 8000m 24 100 1010 弱い雨
26 06:30 南西 2 3500m 24 100 1010 強い雨 もや
26 06:00 西南西 3 2100m 24 100 1010 強い雨 もや
26 05:30 南西 4 4000m 24 100 1010 雨 もや
26 05:00 西 6 10km以上 26 89 1010
26 04:30 西 4 10km以上 26 89 1010
26 04:00 西南西 4 10km以上 26 94 1010 弱い雨
26 03:30 西南西 2 10km以上 26 89 1010
26 03:00 西南西 3 10km以上 26 89 1010
26 02:30 西南西 3 10km以上 26 89 1011
26 02:00 西南西 4 10km以上 26 89 1011
26 01:30 西南西 3 10km以上 26 89 1011
26 01:00 西南西 2 10km以上 26 89 1011
26 00:30 西南西 2 10km以上 26 89 1012
26 00:00 南南西 2 10km以上 25 94 1012
25 23:30 南南西 2 10km以上 25 94 1012
25 23:00 南南西 2 10km以上 25 94 1012
25 22:30 南南西 2 10km以上 25 94 1012
25 22:00 南南西 2 10km以上 25 94 1012
25 21:30 1 10km以上 25 94 1012
25 21:00 1 10km以上 25 94 1012
25 20:30 西南西 1 10km以上 25 94 1012 弱い雨
25 20:00 1 10km以上 26 89 1011 弱い雨
25 19:30 西 2 10km以上 26 89 1011 弱い雨
25 19:00 西 2 10km以上 27 84 1011 弱い雨
25 18:30 西北西 3 10km以上 27 84 1011
25 18:00 西北西 2 10km以上 27 84 1011
25 17:30 西北西 2 10km以上 27 84 1011
25 17:00 西 3 10km以上 27 84 1011
25 16:30 西 3 10km以上 27 84 1011
25 16:00 西南西 3 10km以上 27 79 1011
25 15:30 西南西 3 10km以上 27 89 1011 弱い雨
25 15:00 西 4 10km以上 26 89 1011 弱い雨
25 14:30 南西 2 10km以上 26 94 1012 弱い雨
25 14:00 南西 2 8000m 25 100 1012
25 13:30 南西 2 10km以上 26 94 1012 弱い雨
25 13:00 南南西 2 9000m 26 94 1013
25 12:30 南西 2 8000m 25 100 1013
25 12:00 西南西 4 9000m 25 94 1013
25 11:30 西南西 4 5000m 25 94 1013 強い雨 もや
25 11:00 西南西 7 10km以上 26 94 1013 弱い雨
25 10:30 西 3 10km以上 27 89 1013 弱い雨
25 10:00 西 3 10km以上 27 89 1013
25 09:30 西 3 10km以上 27 89 1013
25 09:00 西南西 2 10km以上 26 94 1013 弱い雨
25 08:30 南南西 2 10km以上 26 94 1013 弱い雨
25 08:00 南南西 1 10km以上 25 100 1013
25 07:30 南西 2 10km以上 25 100 1013 強い霧雨
25 07:00 2 10km以上 25 100 1012 弱い雨
25 06:30 西南西 3 10km以上 26 94 1012 弱い雨
25 06:00 南西 1 3800m 25 100 1012 雨 もや
25 05:30 1 10km以上 25 100 1011
25 05:00 1 10km以上 25 100 1011
25 04:30 2 10km以上 25 100 1011
25 04:00 2 10km以上 25 100 1011
25 03:30 2 10km以上 25 100 1011
NCRG 271300Z AUTO 12001KT 6000 NCD 23/23 Q1009
NCRG 271230Z AUTO 09002KT 2100 BCFG NCD 23/23 Q1009
NCRG 271200Z AUTO 18001KT 9999 NCD 24/24 Q1009
NCRG 271130Z AUTO 19002KT 9999 NCD 24/24 Q1009
NCRG 271100Z AUTO 20001KT 9999 NCD 24/24 Q1009
NCRG 271030Z AUTO 21001KT 9999 NCD 24/24 Q1010
NCRG 271000Z AUTO 18002KT 8000 NCD 24/24 Q1010
NCRG 270930Z AUTO 12002KT 9999 -RA FEW048/// 24/24 Q1010 RERA
NCRG 270900Z AUTO 14004KT 090V190 2800 +RA BR FEW011/// BKN021/// OVC047/// 25/24 Q1010 REDZ
NCRG 270830Z AUTO 04001KT 9999 FEW041/// BKN050/// 25/25 Q1010
NCRG 270800Z AUTO 10004KT 9999 FEW017/// SCT030/// 25/25 Q1010
NCRG 270730Z AUTO 11003KT 9999 SCT018/// BKN038/// 25/25 Q1010
NCRG 270700Z AUTO 10002KT 9999 FEW020/// 25/25 Q1009
NCRG 270630Z AUTO 12001KT 9999 FEW021/// 26/25 Q1009
NCRG 270600Z AUTO 18002KT 9999 SCT017/// BKN022/// BKN027/// 26/25 Q1009
NCRG 270530Z AUTO 17002KT 9999 BKN015/// 26/25 Q1009
NCRG 270500Z AUTO 19003KT 110V250 9999 FEW003/// 27/25 Q1008
NCRG 270430Z AUTO 20003KT 140V260 9999 FEW014/// 27/25 Q1008
NCRG 270400Z AUTO 22004KT 160V260 9999 FEW015/// 28/25 Q1008
NCRG 270330Z AUTO 01004KT 330V040 9999 FEW016/// 27/25 Q1008
NCRG 270300Z AUTO 03003KT 350V060 9999 FEW009/// BKN016/// 27/25 Q1008
NCRG 270230Z AUTO 22002KT 9999 FEW006/// SCT100/// 26/25 Q1008
NCRG 270200Z AUTO 22003KT 190V260 9999 -RA FEW075/// BKN095/// 26/25 Q1008
NCRG 270130Z AUTO 25005KT 220V280 9999 FEW012/// BKN028/// OVC090/// 26/25 Q1009 RERA
NCRG 270100Z AUTO 25003KT 170V340 9999 -RA BKN015/// BKN034/// BKN070/// 25/24 Q1009 RERA
NCRG 270030Z AUTO 30005KT 250V330 8000 +RA SCT025/// BKN048/// OVC065/// 25/24 Q1009 RERA
NCRG 270000Z AUTO 06005KT 010V110 6000 +RA FEW016/// BKN040/// OVC047/// 24/24 Q1010
NCRG 262330Z AUTO /////KT //// +RA BR SCT014/// BKN024/// BKN032/// 24/24 Q1010
NCRG 262300Z AUTO 08007KT 050V110 9999 -RA BKN011/// 25/25 Q1010 RERA
NCRG 262230Z AUTO 21004KT 150V300 1600 +RA BCFG FEW010/// BKN024/// OVC033/// 26/25 Q1010
NCRG 262200Z AUTO 18004KT 9999 BKN016/// BKN022/// OVC030/// 27/25 Q1010 RERA
NCRG 262130Z AUTO 19005KT 130V240 9999 SCT017/// BKN024/// BKN042/// 28/25 Q1011
NCRG 262100Z AUTO 19004KT 9999 SCT017/// BKN023/// BKN029/// 27/25 Q1011
NCRG 262030Z AUTO 20003KT 9999 -RA FEW014/// SCT042/// 27/25 Q1011 RERA
NCRG 262000Z AUTO 20004KT 9999 SCT015/// BKN022/// BKN055/// 27/25 Q1011
NCRG 261930Z AUTO 18003KT 9999 FEW017/// BKN029/// OVC070/// 26/25 Q1011
NCRG 261900Z AUTO 19004KT 110V240 9999 -RA BKN015/// BKN026/// OVC043/// 26/25 Q1011 RERA
NCRG 261830Z AUTO 00000KT 9999 FEW007/// BKN016/// BKN025/// 25/25 Q1011
NCRG 261800Z AUTO 22002KT 9999 -RA SCT009/// BKN017/// BKN025/// 25/25 Q1011 RERA
NCRG 261730Z AUTO 22003KT 160V270 6000 RA SCT011/// SCT022/// BKN050/// 25/25 Q1011
NCRG 261700Z AUTO 21002KT 8000 -RA BKN007/// BKN015/// OVC095/// 24/24 Q1010 RERA
NCRG 261630Z AUTO 23003KT 190V270 3500 +RA BR SCT006/// BKN014/// OVC030/// 24/24 Q1010
NCRG 261600Z AUTO 24006KT 200V270 2100 +RA BR SCT005/// BKN009/// BKN034/// 24/24 Q1010
NCRG 261530Z AUTO 23007KT 190V260 4000 RA BR BKN006/// BKN011/// OVC027/// 24/24 Q1010
NCRG 261500Z AUTO 28011KT 9999 SCT019/// BKN027/// 26/24 Q1010
NCRG 261430Z AUTO 27008KT 9999 SCT022/// SCT027/// OVC043/// 26/24 Q1010
NCRG 261400Z AUTO 25008KT 210V290 9999 -RA FEW010/// BKN024/// OVC048/// 26/25 Q1010
NCRG 261330Z AUTO 24004KT 9999 SCT018/// BKN023/// OVC040/// 26/24 Q1010
NCRG 261300Z AUTO 25006KT 9999 SCT016/// SCT029/// OVC038/// 26/24 Q1010
NCRG 261230Z AUTO 25006KT 9999 FEW002/// BKN024/// 26/24 Q1011
NCRG 261200Z AUTO 25007KT 9999 BKN017/// BKN024/// 26/24 Q1011
NCRG 261130Z AUTO 24005KT 190V270 9999 BKN018/// 26/24 Q1011
NCRG 261100Z AUTO 24004KT 200V280 9999 BKN018/// 26/24 Q1011
NCRG 261030Z AUTO 25004KT 210V290 9999 BKN017/// BKN023/// 26/24 Q1012
NCRG 261000Z AUTO 20003KT 9999 BKN018/// 25/24 Q1012
NCRG 260930Z AUTO 20003KT 160V230 9999 FEW018/// 25/24 Q1012
NCRG 260900Z AUTO 20003KT 9999 FEW016/// 25/24 Q1012
NCRG 260830Z AUTO 20003KT 9999 SCT003/// SCT017/// 25/24 Q1012
NCRG 260800Z AUTO 20003KT 9999 FEW003/// SCT016/// 25/24 Q1012
NCRG 260730Z AUTO 19002KT 9999 FEW017/// 25/24 Q1012
NCRG 260700Z AUTO 19002KT 9999 BKN016/// BKN023/// 25/24 Q1012
NCRG 260630Z AUTO 24002KT 9999 -RA BKN015/// 25/24 Q1012
NCRG 260600Z AUTO 19002KT 9999 -RA FEW100/// 26/24 Q1011
NCRG 260530Z AUTO 28004KT 230V300 9999 -RA FEW022/// 26/24 Q1011
NCRG 260500Z AUTO 28004KT 9999 -RA SCT021/// BKN060/// 27/24 Q1011 REDZ
NCRG 260430Z AUTO 29005KT 9999 OVC020/// 27/24 Q1011
NCRG 260400Z AUTO 29004KT 9999 BKN019/// BKN025/// 27/24 Q1011
NCRG 260330Z AUTO 29004KT 260V330 9999 SCT017/// BKN023/// BKN043/// 27/24 Q1011
NCRG 260300Z AUTO 27005KT 9999 BKN019/// BKN090/// 27/24 Q1011
NCRG 260230Z AUTO 26006KT 9999 FEW047/// 27/24 Q1011
NCRG 260200Z AUTO 24006KT 9999 SCT100/// 27/23 Q1011
NCRG 260130Z AUTO 25006KT 9999 -RA SCT039/// SCT050/// BKN090/// 27/25 Q1011
NCRG 260100Z AUTO 26008KT 9999 -RA FEW018/// BKN047/// BKN055/// 26/24 Q1011
NCRG 260030Z AUTO 23003KT 190V270 9999 -RA FEW050/// SCT070/// OVC090/// 26/25 Q1012 RERA
NCRG 260000Z AUTO 23003KT 180V280 8000 RA FEW029/// SCT045/// BKN080/// 25/25 Q1012 RERA
NCRG 252330Z AUTO 23003KT 160V270 9999 -RA SCT013/// BKN021/// BKN035/// 26/25 Q1012 RERA
NCRG 252300Z AUTO 21003KT 140V250 9000 RA FEW041/// BKN070/// 26/25 Q1013
NCRG 252230Z AUTO 23004KT 170V260 8000 RA FEW012/// BKN046/// 25/25 Q1013
NCRG 252200Z AUTO 24007KT 210V280 9000 RA BKN011/// BKN030/// 25/24 Q1013
NCRG 252130Z AUTO 25008KT 5000 +RA BR SCT008/// BKN027/// BKN047/// 25/24 Q1013 RERA
NCRG 252100Z AUTO 25013KT 9999 -RA SCT009/// BKN020/// OVC028/// 26/25 Q1013 RERA
NCRG 252030Z AUTO 26006KT 9999 -RA SCT016/// BKN024/// BKN060/// 27/25 Q1013
NCRG 252000Z AUTO 26006KT 220V300 9999 SCT016/// BKN024/// 27/25 Q1013
NCRG 251930Z AUTO 26006KT 9999 BKN016/// BKN021/// OVC046/// 27/25 Q1013
NCRG 251900Z AUTO 24003KT 9999 -RA BKN015/// BKN020/// BKN038/// 26/25 Q1013
NCRG 251830Z AUTO 21003KT 180V270 9999 -RA SCT014/// SCT039/// OVC090/// 26/25 Q1013
NCRG 251800Z AUTO 21002KT 9999 BKN014/// BKN090/// 25/25 Q1013 REDZ
NCRG 251730Z AUTO 22003KT 180V250 9999 +DZ SCT014/// BKN029/// 25/25 Q1013
NCRG 251700Z AUTO 19003KT 140V240 9999 -RA SCT014/// BKN028/// OVC095/// 25/25 Q1012
NCRG 251630Z AUTO 24006KT 9999 -RA BKN014/// BKN021/// BKN026/// 26/25 Q1012 RERA
NCRG 251600Z AUTO 22002KT 3800 RA BR BKN015/// 25/25 Q1012
NCRG 251530Z AUTO 18001KT 9999 BKN017/// 25/25 Q1011
NCRG 251500Z AUTO 18002KT 9999 BKN075/// 25/25 Q1011
NCRG 251430Z AUTO 19003KT 9999 BKN075/// 25/25 Q1011
NCRG 251400Z AUTO 19003KT 9999 BKN075/// 25/25 Q1011
NCRG 251330Z AUTO 19003KT 9999 OVC080/// 25/25 Q1011